Time;durP1;ratioP1;P1;durP2;ratioP2;P2;SDS_P1;SDS_P2;PMS_P1;PMS_P2;Temp;Humidity;BMP_temperature;BMP_pressure;BME280_temperature;BME280_humidity;BME280_pressure;Samples;Min_cycle;Max_cycle;Signal;HPM_P1;HPM_P2
2022/03/26 00:00:24;;;;;;;84.80;45.90;;;4.90;99.90;;;;;;5073514;28;20052;-73
2022/03/26 00:02:54;;;;;;;82.07;44.08;;;4.90;99.90;;;;;;5091386;28;20478;-73
2022/03/26 00:05:19;;;;;;;82.07;46.30;;;4.90;99.90;;;;;;5095876;28;20052;-73
2022/03/26 00:07:45;;;;;;;79.20;46.13;;;4.90;99.90;;;;;;5098525;28;20400;-73
2022/03/26 00:10:11;;;;;;;84.45;46.67;;;4.80;99.90;;;;;;5090797;28;20048;-73
2022/03/26 00:12:39;;;;;;;84.68;47.88;;;4.80;99.90;;;;;;5082087;28;20052;-72
2022/03/26 00:15:05;;;;;;;86.18;47.78;;;4.80;99.90;;;;;;5078423;28;20063;-73
2022/03/26 00:17:31;;;;;;;82.70;45.28;;;4.80;99.90;;;;;;5102361;28;20085;-73
2022/03/26 00:19:57;;;;;;;89.55;47.47;;;4.80;99.90;;;;;;5073134;28;20044;-73
2022/03/26 00:22:23;;;;;;;91.82;50.53;;;4.80;99.90;;;;;;5095747;28;20036;-74
2022/03/26 00:24:49;;;;;;;88.53;48.40;;;4.80;99.90;;;;;;5101531;28;20531;-74
2022/03/26 00:27:15;;;;;;;94.82;51.55;;;4.70;99.90;;;;;;5083658;28;20124;-74
2022/03/26 00:29:41;;;;;;;93.32;53.22;;;4.70;99.90;;;;;;5103345;28;20047;-74
2022/03/26 00:32:07;;;;;;;99.30;56.53;;;4.70;99.90;;;;;;5079137;28;20551;-74
2022/03/26 00:34:33;;;;;;;94.10;52.67;;;4.60;99.90;;;;;;5095774;28;20071;-74
2022/03/26 00:36:59;;;;;;;97.95;52.50;;;4.60;99.90;;;;;;5081349;28;20110;-73
2022/03/26 00:39:25;;;;;;;95.45;54.15;;;4.60;99.90;;;;;;5077681;28;20079;-73
2022/03/26 00:41:51;;;;;;;113.85;62.22;;;4.60;99.90;;;;;;5083412;28;20552;-74
2022/03/26 00:44:17;;;;;;;113.82;62.00;;;4.60;99.90;;;;;;5089278;28;20063;-73
2022/03/26 00:46:45;;;;;;;135.43;71.32;;;4.60;99.90;;;;;;5094875;28;20459;-73
2022/03/26 00:49:12;;;;;;;118.78;66.13;;;4.60;99.90;;;;;;5094620;28;20091;-73
2022/03/26 00:51:38;;;;;;;121.25;64.78;;;4.60;99.90;;;;;;5095611;28;20040;-74
2022/03/26 00:54:04;;;;;;;122.88;69.18;;;4.60;99.90;;;;;;5077407;28;20063;-74
2022/03/26 00:56:29;;;;;;;135.18;74.50;;;4.60;99.90;;;;;;5094618;28;20047;-74
2022/03/26 00:58:55;;;;;;;133.60;70.43;;;4.60;99.90;;;;;;5095587;28;20413;-74
2022/03/26 01:01:21;;;;;;;138.52;73.72;;;4.50;99.90;;;;;;5095471;28;20100;-74
2022/03/26 01:03:47;;;;;;;133.00;70.25;;;4.50;99.90;;;;;;5094618;28;20056;-74
2022/03/26 01:06:13;;;;;;;135.02;76.57;;;4.50;99.90;;;;;;5095367;28;20093;-74
2022/03/26 01:08:39;;;;;;;133.00;71.03;;;4.50;99.90;;;;;;5094647;28;20182;-74
2022/03/26 01:11:05;;;;;;;126.55;70.35;;;4.50;99.90;;;;;;5076648;28;20541;-74
2022/03/26 01:13:32;;;;;;;134.88;72.10;;;4.40;99.90;;;;;;5077287;28;20379;-74
2022/03/26 01:15:57;;;;;;;131.52;70.72;;;4.40;99.90;;;;;;5076282;28;20410;-74
2022/03/26 01:18:23;;;;;;;129.52;73.38;;;4.40;99.90;;;;;;5076388;28;20036;-75
2022/03/26 01:20:49;;;;;;;146.70;71.63;;;4.40;99.90;;;;;;5076650;28;20051;-74
2022/03/26 01:23:19;;;;;;;127.43;68.72;;;4.40;99.90;;;;;;5076024;28;20056;-74
2022/03/26 01:25:45;;;;;;;120.63;64.40;;;4.40;99.90;;;;;;5094585;28;20428;-74
2022/03/26 01:28:10;;;;;;;116.03;61.92;;;4.30;99.90;;;;;;5076403;28;20086;-74
2022/03/26 01:30:36;;;;;;;121.18;64.93;;;4.30;99.90;;;;;;5075876;28;20052;-74
2022/03/26 01:33:01;;;;;;;120.80;59.58;;;4.30;99.90;;;;;;5076296;28;20135;-74
2022/03/26 01:35:27;;;;;;;111.55;56.75;;;4.20;99.90;;;;;;5076810;28;20067;-75
2022/03/26 01:37:53;;;;;;;109.60;58.53;;;4.20;99.90;;;;;;5094185;28;20044;-74
2022/03/26 01:40:18;;;;;;;99.13;53.83;;;4.20;99.90;;;;;;5076232;28;20139;-74
2022/03/26 01:42:44;;;;;;;95.00;53.70;;;4.20;99.90;;;;;;5076636;28;20065;-74
2022/03/26 01:45:14;;;;;;;100.50;54.05;;;4.10;99.90;;;;;;5094275;28;20043;-75
2022/03/26 01:47:40;;;;;;;88.88;51.00;;;4.10;99.90;;;;;;5075544;28;20044;-74
2022/03/26 01:50:06;;;;;;;98.18;54.20;;;4.10;99.90;;;;;;5076096;28;20101;-74
2022/03/26 01:52:34;;;;;;;100.90;55.33;;;4.10;99.90;;;;;;5075566;28;20051;-75
2022/03/26 01:55:00;;;;;;;110.10;55.17;;;4.00;99.90;;;;;;5076480;28;20048;-74
2022/03/26 01:57:26;;;;;;;106.53;55.78;;;4.00;99.90;;;;;;5076123;28;20050;-74
2022/03/26 01:59:52;;;;;;;111.32;59.00;;;4.00;99.90;;;;;;5093535;28;20554;-74
2022/03/26 02:02:18;;;;;;;105.28;53.03;;;4.00;99.90;;;;;;5094355;28;20032;-75
2022/03/26 02:04:44;;;;;;;100.80;51.83;;;4.00;99.90;;;;;;5075702;28;20044;-74
2022/03/26 02:07:09;;;;;;;85.50;48.65;;;4.00;99.90;;;;;;5075914;28;20048;-74
2022/03/26 02:09:35;;;;;;;90.43;49.25;;;3.90;99.90;;;;;;5098561;28;20052;-74
2022/03/26 02:12:21;;;;;;;94.50;53.33;;;3.80;99.90;;;;;;5085960;28;20093;-74
2022/03/26 02:14:47;;;;;;;91.18;51.88;;;3.90;99.90;;;;;;5095760;28;20142;-73
2022/03/26 02:17:12;;;;;;;99.63;52.72;;;3.80;99.90;;;;;;5095805;28;20458;-74
2022/03/26 02:19:38;;;;;;;89.95;49.45;;;3.80;99.90;;;;;;5113724;28;20036;-74
2022/03/26 02:22:05;;;;;;;91.13;49.05;;;3.80;99.90;;;;;;5113914;28;20043;-73
2022/03/26 02:24:31;;;;;;;87.30;48.42;;;3.80;99.90;;;;;;5096166;28;20081;-74
2022/03/26 02:26:56;;;;;;;99.47;52.58;;;3.80;99.90;;;;;;5113870;28;20566;-74
2022/03/26 02:29:22;;;;;;;93.75;49.05;;;3.80;99.90;;;;;;5113200;28;20120;-74
2022/03/26 02:31:47;;;;;;;93.05;50.53;;;3.70;99.90;;;;;;5132538;27;20367;-73
2022/03/26 02:34:13;;;;;;;94.18;52.75;;;3.70;99.90;;;;;;5106093;28;20049;-74
2022/03/26 02:36:39;;;;;;;96.68;49.15;;;3.70;99.90;;;;;;5095677;28;20047;-74
2022/03/26 02:39:05;;;;;;;88.57;48.92;;;3.70;99.90;;;;;;5096329;27;20478;-74
2022/03/26 02:41:33;;;;;;;121.05;62.30;;;3.70;99.90;;;;;;5115647;27;20122;-75
2022/03/26 02:43:58;;;;;;;93.65;53.33;;;3.70;99.90;;;;;;5134434;27;20050;-77
2022/03/26 02:46:24;;;;;;;118.55;62.67;;;3.80;99.90;;;;;;5116099;27;20039;-77
2022/03/26 02:48:50;;;;;;;124.22;65.10;;;3.80;99.90;;;;;;5133405;27;20043;-74
2022/03/26 02:51:15;;;;;;;108.88;58.05;;;3.90;99.90;;;;;;5115655;27;20047;-75
2022/03/26 02:53:41;;;;;;;128.35;63.72;;;3.90;99.90;;;;;;5134409;27;20050;-74
2022/03/26 02:56:07;;;;;;;136.90;70.70;;;3.90;99.90;;;;;;5133491;27;20043;-74
2022/03/26 02:58:33;;;;;;;131.23;70.13;;;3.90;99.90;;;;;;5115414;27;20481;-74
2022/03/26 03:00:59;;;;;;;146.13;70.03;;;3.90;99.90;;;;;;5115571;27;20031;-74
2022/03/26 03:03:24;;;;;;;137.98;72.43;;;3.90;99.90;;;;;;5114885;27;20446;-74
2022/03/26 03:05:50;;;;;;;128.05;66.75;;;3.90;99.90;;;;;;5133826;27;20035;-75
2022/03/26 03:08:16;;;;;;;135.82;69.63;;;3.90;99.90;;;;;;5133586;27;20051;-75
2022/03/26 03:10:43;;;;;;;128.88;65.80;;;3.90;99.90;;;;;;5115488;27;20047;-75
2022/03/26 03:13:09;;;;;;;131.68;64.53;;;3.90;99.90;;;;;;5115552;27;20507;-74
2022/03/26 03:15:35;;;;;;;132.73;67.15;;;3.90;99.90;;;;;;5133214;27;20055;-74
2022/03/26 03:18:02;;;;;;;134.30;66.10;;;3.90;99.90;;;;;;5115104;27;20042;-74
2022/03/26 03:20:29;;;;;;;131.55;67.03;;;3.90;99.90;;;;;;5133564;27;20050;-75
2022/03/26 03:22:56;;;;;;;120.85;66.38;;;3.90;99.90;;;;;;5133306;27;20043;-74
2022/03/26 03:25:25;;;;;;;134.60;64.55;;;3.90;99.90;;;;;;5115299;27;20126;-74
2022/03/26 03:27:51;;;;;;;123.78;66.35;;;3.90;99.90;;;;;;5115411;27;20043;-75
2022/03/26 03:30:17;;;;;;;123.03;63.63;;;3.90;99.90;;;;;;5133041;27;20051;-74
2022/03/26 03:32:43;;;;;;;130.13;63.70;;;3.90;99.90;;;;;;5114785;27;20401;-75
2022/03/26 03:35:08;;;;;;;130.23;66.53;;;3.80;99.90;;;;;;5133285;27;20043;-74
2022/03/26 03:37:38;;;;;;;117.10;63.42;;;3.80;99.90;;;;;;5114138;27;20043;-74
2022/03/26 03:40:06;;;;;;;119.03;60.55;;;3.90;99.90;;;;;;5133457;27;20085;-74
2022/03/26 03:42:31;;;;;;;113.50;58.83;;;3.80;99.90;;;;;;5133318;27;20046;-74
2022/03/26 03:44:57;;;;;;;115.18;60.58;;;3.80;99.90;;;;;;5114538;27;20047;-74
2022/03/26 03:47:23;;;;;;;112.38;59.72;;;3.70;99.90;;;;;;5133246;27;20035;-74
2022/03/26 03:49:48;;;;;;;106.95;56.55;;;3.70;99.90;;;;;;5114581;28;20078;-74
2022/03/26 03:52:14;;;;;;;113.18;60.08;;;3.70;99.90;;;;;;5132771;27;20047;-74
2022/03/26 03:54:39;;;;;;;105.70;55.20;;;3.60;99.90;;;;;;5114898;28;20466;-74
2022/03/26 03:57:05;;;;;;;117.18;56.08;;;3.60;99.90;;;;;;5133384;28;20051;-74
2022/03/26 03:59:31;;;;;;;113.43;57.15;;;3.60;99.90;;;;;;5132472;28;20039;-74
2022/03/26 04:01:56;;;;;;;116.13;60.10;;;3.50;99.90;;;;;;5114986;28;20039;-74
2022/03/26 04:04:22;;;;;;;120.50;60.38;;;3.50;99.90;;;;;;5132624;28;20529;-74
2022/03/26 04:06:47;;;;;;;120.20;62.72;;;3.50;99.90;;;;;;5133089;28;20046;-74
2022/03/26 04:09:16;;;;;;;113.30;60.17;;;3.40;99.90;;;;;;5133170;28;20413;-74
2022/03/26 04:11:42;;;;;;;111.95;60.38;;;3.40;99.90;;;;;;5134895;27;20792;-74
2022/03/26 04:14:07;;;;;;;115.07;60.08;;;3.40;99.90;;;;;;5118642;27;20043;-74
2022/03/26 04:16:33;;;;;;;116.05;60.00;;;3.40;99.90;;;;;;5137223;27;20043;-74
2022/03/26 04:18:59;;;;;;;107.78;58.15;;;3.30;99.90;;;;;;5118139;27;20492;-74
2022/03/26 04:21:25;;;;;;;111.18;54.88;;;3.30;99.90;;;;;;5137071;27;20049;-74
2022/03/26 04:23:51;;;;;;;103.82;56.40;;;3.30;99.90;;;;;;5137305;27;20442;-74
2022/03/26 04:26:17;;;;;;;98.60;54.55;;;3.30;99.90;;;;;;5117913;27;20051;-75
2022/03/26 04:28:43;;;;;;;111.30;57.25;;;3.20;99.90;;;;;;5118335;27;20077;-74
2022/03/26 04:31:09;;;;;;;118.07;58.95;;;3.20;99.90;;;;;;5118503;27;20054;-74
2022/03/26 04:33:35;;;;;;;111.93;53.72;;;3.20;99.90;;;;;;5118277;27;20043;-74
2022/03/26 04:36:00;;;;;;;100.05;50.13;;;3.20;99.90;;;;;;5118156;27;20497;-75
2022/03/26 04:38:26;;;;;;;104.93;53.78;;;3.20;99.90;;;;;;5118696;27;20047;-75
2022/03/26 04:40:52;;;;;;;94.22;49.70;;;3.20;99.90;;;;;;5136212;27;20115;-75
2022/03/26 04:43:20;;;;;;;94.05;50.13;;;3.20;99.90;;;;;;5118122;27;20389;-74
2022/03/26 04:45:48;;;;;;;94.03;48.80;;;3.20;99.90;;;;;;5118006;27;20058;-75
2022/03/26 04:48:14;;;;;;;95.43;48.88;;;4.60;99.90;;;;;;5135830;27;20058;-75
2022/03/26 04:50:39;;;;;;;95.47;50.03;;;3.10;99.90;;;;;;5118308;27;20050;-75
2022/03/26 04:53:05;;;;;;;94.38;51.05;;;3.10;99.90;;;;;;5118316;27;20148;-75
2022/03/26 04:55:31;;;;;;;93.57;48.85;;;3.10;99.90;;;;;;5117209;27;20129;-75
2022/03/26 04:57:56;;;;;;;99.43;54.72;;;3.00;99.90;;;;;;5136435;27;20053;-75
2022/03/26 05:00:22;;;;;;;94.80;50.30;;;3.00;99.90;;;;;;5136171;27;20039;-75
2022/03/26 05:02:48;;;;;;;91.63;50.00;;;3.00;99.90;;;;;;5135865;27;20043;-75
2022/03/26 05:05:14;;;;;;;109.03;57.83;;;3.00;99.90;;;;;;5103378;27;20051;-75
2022/03/26 05:07:45;;;;;;;110.15;55.65;;;3.00;99.90;;;;;;5117545;27;20039;-75
2022/03/26 05:10:32;;;;;;;107.97;49.45;;;3.00;99.90;;;;;;5119572;27;20039;-75
2022/03/26 05:12:58;;;;;;;97.70;52.50;;;3.00;99.90;;;;;;5097572;28;20155;-75
2022/03/26 05:15:27;;;;;;;103.38;51.95;;;3.00;99.90;;;;;;5126639;27;20510;-75
2022/03/26 05:17:54;;;;;;;100.43;50.65;;;3.00;99.90;;;;;;5119028;27;20028;-75
2022/03/26 05:20:20;;;;;;;101.90;52.05;;;3.00;99.90;;;;;;5111783;27;20057;-75
2022/03/26 05:22:47;;;;;;;98.78;51.78;;;3.00;99.90;;;;;;5097878;28;20051;-75
2022/03/26 05:25:15;;;;;;;101.88;50.33;;;2.90;99.90;;;;;;5095711;28;20048;-75
2022/03/26 05:27:49;;;;;;;114.18;59.60;;;2.90;99.90;;;;;;5076430;28;20052;-75
2022/03/26 05:30:16;;;;;;;104.97;54.83;;;2.90;99.90;;;;;;5076380;28;20087;-75
2022/03/26 05:32:42;;;;;;;109.90;58.25;;;2.90;99.90;;;;;;5076439;28;20512;-75
2022/03/26 05:35:13;;;;;;;106.43;54.45;;;2.90;99.90;;;;;;5085964;28;20047;-75
2022/03/26 05:37:41;;;;;;;111.53;56.65;;;3.00;99.90;;;;;;5115553;27;20044;-75
2022/03/26 05:40:08;;;;;;;104.85;54.42;;;3.00;99.90;;;;;;5109297;28;20051;-75
2022/03/26 05:42:35;;;;;;;99.15;51.22;;;3.00;99.90;;;;;;5096759;28;20593;-75
2022/03/26 05:45:05;;;;;;;109.47;54.42;;;3.00;99.90;;;;;;5094099;28;20044;-75
2022/03/26 05:47:31;;;;;;;99.68;54.13;;;3.00;99.90;;;;;;5104308;27;20393;-75
2022/03/26 05:49:57;;;;;;;103.05;50.67;;;3.00;99.90;;;;;;5116817;27;20046;-75
2022/03/26 05:52:23;;;;;;;101.38;52.83;;;3.00;99.90;;;;;;5116917;27;20050;-74
2022/03/26 05:54:48;;;;;;;103.25;54.95;;;3.30;99.90;;;;;;5116736;27;20374;-75
2022/03/26 05:57:14;;;;;;;101.57;51.95;;;3.10;99.90;;;;;;5135036;27;20068;-75
2022/03/26 05:59:40;;;;;;;94.13;51.80;;;3.10;99.90;;;;;;5116510;27;20043;-75
2022/03/26 06:02:06;;;;;;;96.78;51.08;;;3.10;99.90;;;;;;5135233;27;20035;-75
2022/03/26 06:04:31;;;;;;;98.15;51.47;;;3.10;99.90;;;;;;5134734;27;20493;-75
2022/03/26 06:06:57;;;;;;;101.80;49.88;;;3.10;99.90;;;;;;5134764;27;20485;-75
2022/03/26 06:09:22;;;;;;;88.45;47.15;;;3.10;99.90;;;;;;5127290;27;20070;-75
2022/03/26 06:11:48;;;;;;;82.32;47.60;;;3.20;99.90;;;;;;5100504;27;20093;-75
2022/03/26 06:14:14;;;;;;;92.53;52.53;;;3.30;99.90;;;;;;5104213;28;20082;-75
2022/03/26 06:16:39;;;;;;;76.28;43.75;;;3.20;99.90;;;;;;5101496;27;20043;-75
2022/03/26 06:19:05;;;;;;;84.00;46.58;;;3.30;99.90;;;;;;5115752;27;20058;-75
2022/03/26 06:21:33;;;;;;;102.05;52.30;;;3.30;99.90;;;;;;5134784;27;20074;-75
2022/03/26 06:23:59;;;;;;;90.80;49.63;;;3.40;99.90;;;;;;5135054;27;20091;-75
2022/03/26 06:26:26;;;;;;;95.82;53.65;;;3.50;99.90;;;;;;5134167;27;20043;-75
2022/03/26 06:28:52;;;;;;;101.45;54.42;;;3.50;99.90;;;;;;5095680;28;20062;-75
2022/03/26 06:31:18;;;;;;;215.40;67.00;;;3.60;99.90;;;;;;5105398;28;20390;-74
2022/03/26 06:33:44;;;;;;;116.03;55.83;;;3.70;99.90;;;;;;5094208;28;20051;-75
2022/03/26 06:36:09;;;;;;;202.65;66.45;;;3.90;99.90;;;;;;5103997;27;20062;-75
2022/03/26 06:38:38;;;;;;;117.95;54.70;;;4.00;99.90;;;;;;5118903;27;20454;-75
2022/03/26 06:41:11;;;;;;;118.00;60.60;;;4.10;99.90;;;;;;5094017;28;20054;-75
2022/03/26 06:43:41;;;;;;;125.78;60.08;;;4.20;99.90;;;;;;5098044;28;20501;-75
2022/03/26 06:46:07;;;;;;;112.00;57.60;;;4.30;99.90;;;;;;5077583;28;20516;-75
2022/03/26 06:48:33;;;;;;;106.65;54.85;;;4.40;99.90;;;;;;5095254;28;20156;-75
2022/03/26 06:51:02;;;;;;;127.50;62.47;;;4.40;99.90;;;;;;5095421;28;20491;-75
2022/03/26 06:53:31;;;;;;;122.70;62.38;;;4.50;99.90;;;;;;5084306;28;20122;-75
2022/03/26 06:55:57;;;;;;;118.13;61.53;;;4.60;99.90;;;;;;5084308;28;20044;-75
2022/03/26 06:58:24;;;;;;;126.40;63.90;;;4.60;99.90;;;;;;5100074;28;20393;-74
2022/03/26 07:00:50;;;;;;;120.90;62.38;;;4.70;99.90;;;;;;5117095;27;20115;-75
2022/03/26 07:03:16;;;;;;;122.05;63.75;;;4.80;99.90;;;;;;5126625;27;20134;-75
2022/03/26 07:05:42;;;;;;;116.15;58.95;;;4.90;99.90;;;;;;5122621;27;20042;-75
2022/03/26 07:08:09;;;;;;;119.40;61.72;;;5.00;99.90;;;;;;5094322;28;20043;-75
2022/03/26 07:10:35;;;;;;;119.15;61.83;;;5.10;99.90;;;;;;5103153;27;20047;-75
2022/03/26 07:13:00;;;;;;;113.78;60.70;;;5.20;99.90;;;;;;5104376;28;20050;-74
2022/03/26 07:15:26;;;;;;;115.90;59.85;;;5.30;99.90;;;;;;5094692;28;20051;-74
2022/03/26 07:17:52;;;;;;;121.25;60.30;;;5.40;99.90;;;;;;5082078;28;20056;-75
2022/03/26 07:20:17;;;;;;;104.72;56.15;;;5.50;99.90;;;;;;5074723;28;20051;-74
2022/03/26 07:22:44;;;;;;;98.90;52.30;;;5.60;99.90;;;;;;5073777;28;20089;-74
2022/03/26 07:25:12;;;;;;;104.60;55.85;;;5.70;99.90;;;;;;5074579;28;20056;-75
2022/03/26 07:27:38;;;;;;;107.38;54.20;;;5.80;99.90;;;;;;5074587;28;20044;-74
2022/03/26 07:30:05;;;;;;;109.75;56.15;;;5.90;99.90;;;;;;5073568;28;20050;-75
2022/03/26 07:32:31;;;;;;;135.88;61.47;;;6.10;99.90;;;;;;5092566;28;20093;-75
2022/03/26 07:34:57;;;;;;;114.10;57.92;;;6.20;99.90;;;;;;5074504;28;20044;-75
2022/03/26 07:37:23;;;;;;;123.55;63.78;;;6.30;99.90;;;;;;5074132;28;20048;-75
2022/03/26 07:39:49;;;;;;;120.25;57.92;;;6.50;99.90;;;;;;5074394;28;20076;-75
2022/03/26 07:42:14;;;;;;;118.30;59.95;;;6.70;99.90;;;;;;5092413;28;20072;-75
2022/03/26 07:44:40;;;;;;;126.57;62.95;;;6.90;99.90;;;;;;5091972;28;20044;-74
2022/03/26 07:47:06;;;;;;;117.25;59.42;;;7.10;99.90;;;;;;5118330;27;20039;-75
2022/03/26 07:49:32;;;;;;;115.88;59.05;;;7.20;99.90;;;;;;5095002;28;20059;-74
2022/03/26 07:51:57;;;;;;;112.25;57.83;;;7.40;99.90;;;;;;5075146;28;20063;-74
2022/03/26 07:54:23;;;;;;;108.22;58.75;;;7.50;99.90;;;;;;5130721;28;20142;-74
2022/03/26 07:56:49;;;;;;;110.10;59.53;;;7.70;99.90;;;;;;5132764;28;20042;-74
2022/03/26 07:59:15;;;;;;;106.53;57.30;;;7.80;99.90;;;;;;5114470;28;20047;-75
2022/03/26 08:01:41;;;;;;;111.75;59.63;;;8.00;99.90;;;;;;5099087;28;20043;-74
2022/03/26 08:04:06;;;;;;;105.88;58.75;;;8.10;99.90;;;;;;5079074;28;20043;-75
2022/03/26 08:06:32;;;;;;;100.47;55.08;;;8.30;99.90;;;;;;5110263;28;20119;-74
2022/03/26 08:08:58;;;;;;;97.00;56.20;;;8.40;99.90;;;;;;5095680;28;20059;-73
2022/03/26 08:11:23;;;;;;;86.78;51.95;;;8.50;99.90;;;;;;5084511;28;20483;-73
2022/03/26 08:13:49;;;;;;;85.10;49.50;;;8.70;99.90;;;;;;5103024;28;20096;-76
2022/03/26 08:16:15;;;;;;;80.75;48.75;;;8.80;99.90;;;;;;5085595;28;20039;-74
2022/03/26 08:18:40;;;;;;;79.88;47.85;;;9.00;99.90;;;;;;5101137;28;20367;-74
2022/03/26 08:21:06;;;;;;;80.57;49.47;;;9.10;99.90;;;;;;5080182;28;20375;-75
2022/03/26 08:23:32;;;;;;;85.28;49.38;;;9.30;99.90;;;;;;5081292;28;20071;-75
2022/03/26 08:28:42;;;;;;;77.80;46.90;;;9.60;99.90;;;;;;5116942;28;20481;-74
2022/03/26 08:31:10;;;;;;;84.85;46.33;;;9.70;99.90;;;;;;5092559;28;20123;-74
2022/03/26 08:33:40;;;;;;;84.63;50.78;;;9.80;99.90;;;;;;5082465;28;20056;-74
2022/03/26 08:36:06;;;;;;;90.10;50.72;;;9.90;99.90;;;;;;5110078;28;20485;-74
2022/03/26 08:38:32;;;;;;;82.85;49.55;;;10.10;99.90;;;;;;5103472;28;20043;-74
2022/03/26 08:40:58;;;;;;;79.32;47.60;;;10.20;99.90;;;;;;5107617;28;20043;-74
2022/03/26 08:43:23;;;;;;;73.00;44.63;;;10.30;99.90;;;;;;5114211;28;20486;-78
2022/03/26 08:45:49;;;;;;;77.13;45.85;;;10.40;99.90;;;;;;5086738;28;20557;-78
2022/03/26 08:48:17;;;;;;;78.78;46.63;;;10.60;99.90;;;;;;5111950;28;20055;-79
2022/03/26 08:50:43;;;;;;;71.45;45.08;;;12.20;99.90;;;;;;5111158;28;20043;-79
2022/03/26 08:53:10;;;;;;;72.28;44.72;;;10.90;99.90;;;;;;5093666;28;20042;-78
2022/03/26 08:55:35;;;;;;;74.38;45.95;;;10.90;99.90;;;;;;5093705;28;20069;-79
2022/03/26 08:58:02;;;;;;;69.60;41.67;;;11.00;99.90;;;;;;5111384;28;20436;-77
2022/03/26 09:00:28;;;;;;;66.63;41.63;;;11.10;99.90;;;;;;5084331;28;20062;-78
2022/03/26 09:02:55;;;;;;;60.67;38.15;;;11.20;99.90;;;;;;5109667;27;20044;-78
2022/03/26 09:05:20;;;;;;;65.57;40.00;;;11.30;99.90;;;;;;5109334;28;20039;-74
2022/03/26 09:07:46;;;;;;;55.83;34.45;;;11.40;99.90;;;;;;5115487;28;20396;-74
2022/03/26 09:10:12;;;;;;;54.47;34.28;;;11.50;99.90;;;;;;5096167;28;20047;-73
2022/03/26 09:12:38;;;;;;;52.78;34.70;;;11.60;99.90;;;;;;5115299;28;20048;-79
2022/03/26 09:15:07;;;;;;;53.72;33.25;;;11.70;99.90;;;;;;5096568;28;20039;-76
2022/03/26 09:17:33;;;;;;;46.60;32.35;;;11.80;99.90;;;;;;5115135;28;20123;-75
2022/03/26 09:19:59;;;;;;;48.17;31.08;;;11.90;99.90;;;;;;5114467;28;20078;-75
2022/03/26 09:22:25;;;;;;;41.65;30.30;;;12.00;99.90;;;;;;5114184;28;20383;-78
2022/03/26 09:24:53;;;;;;;51.13;31.98;;;12.10;99.90;;;;;;5115158;28;20444;-74
2022/03/26 09:27:22;;;;;;;51.17;31.57;;;12.20;99.90;;;;;;5115294;28;20056;-77
2022/03/26 09:29:47;;;;;;;43.67;31.10;;;12.30;99.90;;;;;;5114747;28;20069;-77
2022/03/26 09:32:13;;;;;;;50.67;32.03;;;12.40;99.90;;;;;;5115804;28;20405;-77
2022/03/26 09:34:38;;;;;;;43.95;27.88;;;12.50;99.90;;;;;;5114631;27;20043;-77
2022/03/26 09:37:05;;;;;;;36.17;25.30;;;12.50;99.90;;;;;;5094938;28;20055;-76
2022/03/26 09:39:30;;;;;;;35.65;23.23;;;12.60;99.90;;;;;;5113426;28;20552;-76
2022/03/26 09:42:00;;;;;;;31.70;22.30;;;12.70;99.90;;;;;;5095011;28;20131;-78
2022/03/26 09:44:27;;;;;;;34.42;22.50;;;12.80;99.90;;;;;;5096725;28;20103;-75
2022/03/26 09:46:53;;;;;;;37.03;23.90;;;12.90;99.90;;;;;;5115315;28;20040;-75
2022/03/26 09:49:19;;;;;;;38.08;25.15;;;12.90;99.90;;;;;;5114263;28;20063;-76
2022/03/26 09:51:44;;;;;;;41.22;24.50;;;13.00;99.90;;;;;;5096645;28;20392;-75
2022/03/26 09:54:15;;;;;;;33.00;23.98;;;13.10;99.90;;;;;;5114782;28;20462;-75
2022/03/26 09:56:41;;;;;;;39.22;24.85;;;13.10;99.90;;;;;;5114302;28;20050;-75
2022/03/26 09:59:07;;;;;;;32.97;22.63;;;13.30;99.90;;;;;;5114773;28;20049;-74
2022/03/26 10:01:33;;;;;;;35.85;23.83;;;13.30;99.90;;;;;;5114665;28;20043;-75
2022/03/26 10:04:11;;;;;;;35.70;22.00;;;13.40;99.90;;;;;;5114183;28;20085;-77
2022/03/26 10:06:46;;;;;;;27.88;18.50;;;13.50;99.90;;;;;;5096660;28;20405;-75
2022/03/26 10:09:11;;;;;;;25.88;18.20;;;13.50;99.90;;;;;;5096312;28;20051;-73
2022/03/26 10:11:37;;;;;;;26.13;18.58;;;13.60;99.90;;;;;;5095710;28;20055;-72
2022/03/26 10:14:03;;;;;;;23.67;17.23;;;13.60;99.90;;;;;;5096023;28;20044;-73
2022/03/26 10:16:28;;;;;;;22.30;15.40;;;13.70;99.90;;;;;;5095973;28;20054;-72
2022/03/26 10:18:59;;;;;;;22.15;14.35;;;13.70;99.90;;;;;;5106153;27;20063;-71
2022/03/26 10:21:25;;;;;;;22.60;14.30;;;13.80;99.90;;;;;;5102189;27;20386;-71
2022/03/26 10:23:53;;;;;;;23.90;17.00;;;13.90;99.90;;;;;;5098661;27;20032;-71
2022/03/26 10:26:23;;;;;;;19.85;13.13;;;13.90;99.90;;;;;;5124182;27;20125;-72
2022/03/26 10:28:58;;;;;;;13.75;9.93;;;14.00;99.90;;;;;;5103790;27;20096;-71
2022/03/26 10:34:14;;;;;;;11.93;7.45;;;14.10;99.90;;;;;;5121086;27;20439;-72
2022/03/26 10:36:45;;;;;;;9.18;6.60;;;14.10;99.90;;;;;;5132553;27;20042;-72
2022/03/26 10:39:25;;;;;;;8.43;6.50;;;14.20;99.90;;;;;;5121212;27;20490;-71
2022/03/26 10:41:54;;;;;;;9.15;6.32;;;14.30;99.90;;;;;;5104936;27;20043;-71
2022/03/26 10:44:25;;;;;;;7.05;5.80;;;14.30;99.90;;;;;;5127558;27;20044;-71
2022/03/26 10:46:58;;;;;;;8.63;5.80;;;14.30;99.90;;;;;;5110850;27;20058;-70
2022/03/26 10:49:40;;;;;;;10.13;6.25;;;14.40;99.90;;;;;;5122629;27;20106;-72
2022/03/26 10:52:16;;;;;;;;;;;14.40;99.90;;;;;;5096188;28;20456;-71
2022/03/26 10:54:42;;;;;;;9.40;5.75;;;14.50;99.90;;;;;;5100919;27;20056;-71
2022/03/26 10:57:08;;;;;;;8.85;5.72;;;14.40;99.90;;;;;;5103619;28;20103;-71
2022/03/26 10:59:34;;;;;;;7.03;5.00;;;14.50;99.90;;;;;;5118017;27;20435;-71
2022/03/26 11:02:00;;;;;;;9.02;5.00;;;14.50;99.90;;;;;;5121051;27;20040;-72
2022/03/26 11:04:27;;;;;;;6.82;5.40;;;14.50;99.90;;;;;;5106494;27;20082;-71
2022/03/26 11:06:55;;;;;;;7.85;6.18;;;14.50;99.90;;;;;;5114905;27;20069;-72
2022/03/26 11:09:21;;;;;;;9.65;6.10;;;14.50;99.90;;;;;;5134155;27;20111;-72
2022/03/26 11:11:49;;;;;;;9.43;5.60;;;14.50;99.90;;;;;;5134089;27;20035;-71
2022/03/26 11:14:20;;;;;;;8.23;5.10;;;14.50;99.90;;;;;;5114604;27;20054;-71
2022/03/26 11:17:12;;;;;;;6.78;4.72;;;14.50;99.90;;;;;;5115502;27;20070;-71
2022/03/26 11:20:03;;;;;;;5.13;4.00;;;14.60;99.90;;;;;;5111059;27;20045;-71
2022/03/26 11:23:02;;;;;;;5.88;3.72;;;14.60;99.90;;;;;;5111875;28;20048;-71
2022/03/26 11:25:34;;;;;;;5.07;3.83;;;14.60;99.90;;;;;;5073897;28;20055;-67
2022/03/26 11:28:03;;;;;;;5.15;3.65;;;14.70;99.90;;;;;;5091199;28;20093;-68
2022/03/26 11:30:49;;;;;;;6.15;4.45;;;14.70;99.90;;;;;;5113249;28;20074;-69
2022/03/26 11:33:17;;;;;;;4.70;3.60;;;14.70;99.90;;;;;;5107908;27;20043;-68
2022/03/26 11:36:00;;;;;;;6.00;3.92;;;14.70;99.90;;;;;;5114026;27;20047;-68
2022/03/26 11:38:30;;;;;;;7.10;3.42;;;14.60;99.90;;;;;;5133367;27;20046;-68
2022/03/26 11:41:07;;;;;;;7.57;3.22;;;14.60;99.90;;;;;;5133234;27;20043;-68
2022/03/26 11:43:44;;;;;;;5.43;4.57;;;14.60;99.90;;;;;;5132555;27;20049;-68
2022/03/26 11:51:57;;;;;;;5.78;3.33;;;14.90;99.90;;;;;;5114447;28;20043;-67
2022/03/26 11:54:24;;;;;;;3.97;3.28;;;15.00;99.90;;;;;;5089766;28;20078;-67
2022/03/26 11:57:18;;;;;;;5.68;3.78;;;15.00;99.90;;;;;;5095078;28;20475;-67
2022/03/26 11:59:45;;;;;;;4.72;4.20;;;15.00;99.90;;;;;;5082322;28;20048;-67
2022/03/26 12:02:24;;;;;;;5.35;3.83;;;15.10;99.90;;;;;;5103995;28;20039;-67
2022/03/26 12:06:35;;;;;;;5.18;4.68;;;15.20;99.90;;;;;;5111811;28;20051;-67
2022/03/26 12:07:49;;;;;;;8.52;5.05;;;15.30;99.90;;;;;;5094029;28;20070;-67
2022/03/26 12:10:18;;;;;;;8.05;5.10;;;15.30;99.90;;;;;;5111659;28;20424;-67
2022/03/26 12:12:57;;;;;;;6.35;4.80;;;15.20;99.90;;;;;;5075297;28;20058;-67
2022/03/26 12:15:27;;;;;;;7.43;4.75;;;15.30;99.90;;;;;;5092140;28;20398;-67
2022/03/26 12:18:09;;;;;;;5.43;4.90;;;15.40;99.90;;;;;;5090900;28;20040;-68
2022/03/26 12:20:43;;;;;;;7.70;4.95;;;15.40;99.90;;;;;;5092261;28;20081;-67
2022/03/26 12:23:12;;;;;;;4.70;4.00;;;15.40;99.90;;;;;;5091717;28;20513;-66
2022/03/26 12:25:46;;;;;;;4.63;3.67;;;15.40;99.90;;;;;;5072929;28;20117;-66
2022/03/26 12:28:16;;;;;;;9.15;4.65;;;15.40;99.90;;;;;;5092098;28;20040;-66
2022/03/26 12:30:50;;;;;;;5.32;4.57;;;15.40;99.90;;;;;;5092029;28;20506;-66
2022/03/26 12:33:17;;;;;;;5.63;4.20;;;15.30;99.90;;;;;;5076474;28;20055;-66
2022/03/26 12:35:47;;;;;;;4.68;4.13;;;15.20;99.90;;;;;;5095788;28;20072;-66
2022/03/26 12:38:13;;;;;;;7.28;4.88;;;15.10;99.90;;;;;;5094225;28;20051;-66
2022/03/26 12:40:39;;;;;;;7.72;5.00;;;14.90;99.90;;;;;;5091796;28;20252;-66
2022/03/26 12:43:10;;;;;;;5.65;4.75;;;14.80;99.90;;;;;;5076995;28;20499;-66
2022/03/26 12:45:35;;;;;;;6.65;4.60;;;14.70;99.90;;;;;;5094932;28;20054;-66